Terminal Aerodrome Forecast
Issued by NWS

Home | Current Version | Previous Version | Graphics & Text | Print | Product List | Glossary On
Versions: 1 2 3 4 5 6 7 8 9 10 11 12 13 14 15 16 17 18
000
FTUS43 KIWX 181508 AAA
TAFSBN
TAF AMD
KSBN 181508Z 1815/1912 25008KT 3SM BR OVC006
     FM181900 22010KT P6SM BKN012
     FM182200 21006KT P6SM SCT015=

USA.gov is the U.S. government's official web portal to all federal, state and local government web resources and services.